Terminal Aerodrome Forecast
Issued by NWS Upton, NY

Home | Current Version | Previous Version | Text Only | Print | Product List | Glossary On
Versions: 1 2 3 4 5 6 7 8 9 10 11 12 13 14 15 16 17 18 19 20 21 22 23 24 25 26 27 28 29 30 31 32 33
000
FTUS41 KOKX 260833 AAA
TAFEWR
TAF AMD
KEWR 260833Z 2609/2712 25006KT P6SM SCT250
     FM261500 20006KT P6SM SCT100 SCT250
     FM261900 16011KT P6SM SCT100 SCT250
     FM270000 20008KT P6SM BKN100 BKN250=

USA.gov is the U.S. government's official web portal to all federal, state and local government web resources and services.